Time;durP1;ratioP1;P1;durP2;ratioP2;P2;SDS_P1;SDS_P2;PMS_P1;PMS_P2;Temp;Humidity;BMP_temperature;BMP_pressure;BME280_temperature;BME280_humidity;BME280_pressure;Samples;Min_cycle;Max_cycle;Signal;HPM_P1;HPM_P2
2022/08/06 00:02:55;;;;;;;22.70;14.80;;;20.70;99.90;;;;;;10447664;28;20393;-79
2022/08/06 00:07:56;;;;;;;20.85;14.43;;;20.60;99.90;;;;;;10447075;28;20138;-79
2022/08/06 00:12:59;;;;;;;20.40;14.02;;;20.60;99.90;;;;;;10444691;28;20031;-79
2022/08/06 00:17:59;;;;;;;20.00;13.68;;;20.50;99.90;;;;;;10447629;28;20032;-79
2022/08/06 00:23:00;;;;;;;20.55;14.48;;;20.40;99.90;;;;;;10447150;28;20090;-79
2022/08/06 00:28:00;;;;;;;20.63;13.98;;;20.30;99.90;;;;;;10442958;28;20041;-80
2022/08/06 00:33:01;;;;;;;18.88;13.68;;;20.20;99.90;;;;;;10446480;28;20037;-80
2022/08/06 00:38:02;;;;;;;19.52;14.02;;;20.10;99.90;;;;;;10446740;28;20388;-79
2022/08/06 00:43:04;;;;;;;19.13;13.95;;;20.10;99.90;;;;;;10443153;28;20056;-80
2022/08/06 00:48:05;;;;;;;18.70;13.93;;;20.10;99.90;;;;;;10445408;28;20028;-79
2022/08/06 00:53:06;;;;;;;21.83;15.20;;;20.10;99.90;;;;;;10443592;28;20020;-80
2022/08/06 00:58:06;;;;;;;19.27;14.18;;;19.90;99.90;;;;;;10446108;28;20409;-78
2022/08/06 01:03:10;;;;;;;21.63;13.68;;;19.90;99.90;;;;;;10443938;28;20476;-81
2022/08/06 01:08:11;;;;;;;18.42;13.68;;;19.90;99.90;;;;;;10445107;28;20191;-80
2022/08/06 01:13:12;;;;;;;15.50;12.48;;;19.90;99.90;;;;;;10444563;28;20068;-80
2022/08/06 01:18:28;;;;;;;18.20;13.23;;;19.80;99.90;;;;;;10445165;28;20021;-80
2022/08/06 01:24:00;;;;;;;20.23;14.48;;;19.90;99.90;;;;;;10444150;28;20041;-80
2022/08/06 01:29:21;;;;;;;16.48;12.52;;;19.80;99.90;;;;;;10444227;28;20032;-80
2022/08/06 01:34:28;;;;;;;18.10;12.93;;;19.80;99.90;;;;;;10405850;23;20091;-80
2022/08/06 01:39:32;;;;;;;19.27;14.18;;;19.70;99.90;;;;;;10383063;28;20047;-79
2022/08/06 01:44:37;;;;;;;16.88;14.23;;;19.70;99.90;;;;;;10399831;23;20108;-79
2022/08/06 01:49:40;;;;;;;17.05;13.18;;;19.60;99.90;;;;;;10345016;28;20092;-79
2022/08/06 01:54:46;;;;;;;17.63;13.63;;;19.60;99.90;;;;;;10361552;28;20030;-79
2022/08/06 01:59:49;;;;;;;19.05;14.55;;;19.70;99.90;;;;;;10367175;28;20084;-79
2022/08/06 02:04:54;;;;;;;20.00;15.43;;;19.90;99.90;;;;;;10368642;28;20045;-78
2022/08/06 02:09:56;;;;;;;21.77;14.40;;;20.00;99.90;;;;;;10416145;23;20063;-79
2022/08/06 02:15:11;;;;;;;21.17;14.82;;;20.40;99.90;;;;;;10425388;28;20033;-79
2022/08/06 02:20:14;;;;;;;19.48;15.07;;;20.60;99.90;;;;;;10434162;28;20124;-79
2022/08/06 02:25:17;;;;;;;18.65;14.77;;;20.60;99.90;;;;;;10416214;28;20405;-80
2022/08/06 02:30:18;;;;;;;21.25;15.57;;;20.50;99.90;;;;;;10431069;28;20033;-78
2022/08/06 02:35:19;;;;;;;19.33;14.40;;;20.40;99.90;;;;;;10429626;28;20378;-79
2022/08/06 02:40:27;;;;;;;21.25;12.40;;;20.20;99.90;;;;;;10421999;28;20040;-79
2022/08/06 02:45:36;;;;;;;18.25;12.60;;;20.20;99.90;;;;;;10431185;28;20127;-79
2022/08/06 02:50:46;;;;;;;17.25;11.90;;;20.20;99.90;;;;;;10423207;28;20088;-79
2022/08/06 02:55:49;;;;;;;15.98;11.05;;;20.30;99.90;;;;;;10417374;28;20091;-79
2022/08/06 03:00:52;;;;;;;15.68;11.32;;;20.30;99.90;;;;;;10423364;28;20067;-78
2022/08/06 03:05:54;;;;;;;12.95;10.00;;;20.30;99.90;;;;;;10430081;28;20049;-79
2022/08/06 03:10:56;;;;;;;12.30;10.07;;;20.40;99.90;;;;;;10427220;28;20053;-79
2022/08/06 03:15:59;;;;;;;11.10;9.63;;;20.40;99.90;;;;;;10423624;28;20029;-78
2022/08/06 03:21:02;;;;;;;15.43;9.88;;;20.40;99.90;;;;;;10422343;28;20025;-78
2022/08/06 03:26:03;;;;;;;13.18;8.73;;;20.40;99.90;;;;;;10427957;28;20095;-79
2022/08/06 03:31:04;;;;;;;12.07;8.50;;;20.40;99.90;;;;;;10420093;28;20056;-79
2022/08/06 03:36:06;;;;;;;9.93;8.40;;;20.40;99.90;;;;;;10428189;28;20041;-79
2022/08/06 03:41:08;;;;;;;8.88;7.45;;;20.40;99.90;;;;;;10420888;28;20583;-78
2022/08/06 03:46:10;;;;;;;10.43;7.82;;;20.50;99.90;;;;;;10421361;28;20087;-80
2022/08/06 03:51:16;;;;;;;10.07;8.35;;;20.60;99.90;;;;;;10420006;28;20116;-79
2022/08/06 03:56:22;;;;;;;9.38;7.57;;;20.70;99.90;;;;;;10418447;28;20033;-79
2022/08/06 04:01:26;;;;;;;8.38;7.47;;;20.90;99.90;;;;;;10437272;28;20437;-79
2022/08/06 04:06:28;;;;;;;9.43;8.10;;;21.00;99.90;;;;;;10428623;28;20164;-78
2022/08/06 04:11:29;;;;;;;9.50;7.22;;;21.00;99.90;;;;;;10394717;28;1100130;-79
2022/08/06 04:16:31;;;;;;;9.30;7.80;;;21.00;99.90;;;;;;10430063;28;20056;-79
2022/08/06 04:21:32;;;;;;;10.63;8.55;;;21.10;99.90;;;;;;10442351;28;20115;-79
2022/08/06 04:26:34;;;;;;;10.65;7.97;;;21.10;99.90;;;;;;10414453;28;20083;-80
2022/08/06 04:31:38;;;;;;;9.85;7.97;;;21.20;99.90;;;;;;10431564;28;20032;-79
2022/08/06 04:36:39;;;;;;;9.15;7.18;;;21.30;99.90;;;;;;10416233;28;20095;-79
2022/08/06 04:41:40;;;;;;;10.45;6.78;;;21.40;99.90;;;;;;10432087;28;20083;-78
2022/08/06 04:46:43;;;;;;;11.85;7.72;;;21.50;99.90;;;;;;10421597;28;20689;-78
2022/08/06 04:51:47;;;;;;;10.18;7.65;;;21.40;99.90;;;;;;10416177;28;20036;-79
2022/08/06 04:56:48;;;;;;;9.95;7.68;;;21.40;99.90;;;;;;10436312;28;20121;-79
2022/08/06 05:01:48;;;;;;;9.52;7.47;;;21.40;99.90;;;;;;10430991;28;20040;-78
2022/08/06 05:07:04;;;;;;;9.18;6.93;;;21.40;99.90;;;;;;10422281;28;20037;-79
2022/08/06 05:12:13;;;;;;;9.52;7.45;;;21.40;99.90;;;;;;10439319;28;20048;-79
2022/08/06 05:17:19;;;;;;;9.32;7.85;;;21.50;99.90;;;;;;10417009;28;20021;-79
2022/08/06 05:22:22;;;;;;;8.05;6.93;;;21.40;99.90;;;;;;10420981;28;20363;-79
2022/08/06 05:27:22;;;;;;;10.23;7.25;;;21.40;99.90;;;;;;10426802;28;20058;-79
2022/08/06 05:32:23;;;;;;;9.48;7.78;;;21.40;99.90;;;;;;10415645;28;20066;-79
2022/08/06 05:37:24;;;;;;;36.33;8.38;;;21.50;99.90;;;;;;10417860;28;20029;-79
2022/08/06 05:42:24;;;;;;;8.88;6.88;;;21.60;99.90;;;;;;10410352;28;20037;-79
2022/08/06 05:47:28;;;;;;;11.00;6.90;;;21.60;99.90;;;;;;10426036;28;20033;-79
2022/08/06 05:52:45;;;;;;;8.98;7.00;;;21.70;99.90;;;;;;10414963;28;20029;-80
2022/08/06 05:57:57;;;;;;;9.63;7.13;;;21.80;99.90;;;;;;10411433;28;20030;-79
2022/08/06 06:03:00;;;;;;;8.48;7.25;;;21.70;99.90;;;;;;10430072;28;20033;-79
2022/08/06 06:08:01;;;;;;;8.77;7.25;;;21.70;99.90;;;;;;10437397;28;20140;-79
2022/08/06 06:13:03;;;;;;;9.07;7.45;;;21.70;99.90;;;;;;10429790;28;20033;-79
2022/08/06 06:18:14;;;;;;;8.73;6.57;;;21.60;99.90;;;;;;10423097;28;20052;-80
2022/08/06 06:23:14;;;;;;;8.93;6.35;;;21.50;99.90;;;;;;10422653;28;20107;-82
2022/08/06 06:28:30;;;;;;;7.63;6.78;;;21.70;99.90;;;;;;10428318;28;20155;-84
2022/08/06 06:33:56;;;;;;;6.95;6.13;;;21.70;99.90;;;;;;10427137;28;20155;-82
2022/08/06 06:39:08;;;;;;;7.68;6.25;;;21.80;99.90;;;;;;10431186;28;20487;-82
2022/08/06 06:44:23;;;;;;;7.57;6.03;;;22.00;99.90;;;;;;10422844;28;20385;-79
2022/08/06 06:49:59;;;;;;;6.60;5.85;;;22.10;99.90;;;;;;10435183;28;20027;-82
2022/08/06 06:55:11;;;;;;;7.43;5.75;;;22.10;99.90;;;;;;10402118;28;20041;-83
2022/08/06 07:00:13;;;;;;;8.45;5.88;;;22.10;99.90;;;;;;10431781;28;20079;-83
2022/08/06 07:05:15;;;;;;;6.43;5.22;;;22.30;99.90;;;;;;10430026;28;20120;-83
2022/08/06 07:10:18;;;;;;;6.43;5.47;;;22.40;99.90;;;;;;10430277;28;20048;-82
2022/08/06 07:15:21;;;;;;;6.10;4.97;;;22.50;99.90;;;;;;10431993;28;20075;-84
2022/08/06 07:20:26;;;;;;;6.85;5.43;;;22.70;99.90;;;;;;10435053;28;20037;-83
2022/08/06 07:25:27;;;;;;;6.57;4.90;;;22.70;99.90;;;;;;10445197;28;20043;-85
2022/08/06 07:30:29;;;;;;;5.20;4.25;;;22.50;99.90;;;;;;10428283;28;20072;-84
2022/08/06 07:35:31;;;;;;;6.88;5.00;;;22.30;99.90;;;;;;10421811;28;20692;-83
2022/08/06 07:40:52;;;;;;;5.57;4.80;;;22.00;99.90;;;;;;10425256;28;20025;-84
2022/08/06 07:45:57;;;;;;;6.95;4.63;;;21.70;99.90;;;;;;10425963;28;20044;-84
2022/08/06 07:51:00;;;;;;;13.23;7.03;;;21.30;99.90;;;;;;10429407;28;20047;-83
2022/08/06 07:56:04;;;;;;;3.20;2.90;;;21.00;99.90;;;;;;10418523;28;20040;-85
2022/08/06 08:01:06;;;;;;;2.75;2.40;;;20.90;99.90;;;;;;10424808;28;20479;-84
2022/08/06 08:06:24;;;;;;;3.42;2.42;;;20.70;99.90;;;;;;10420354;28;20083;-80
2022/08/06 08:11:25;;;;;;;4.78;3.03;;;20.30;99.90;;;;;;10421477;28;20195;-79
2022/08/06 08:16:27;;;;;;;4.43;4.03;;;20.00;99.90;;;;;;10420321;28;20033;-79
2022/08/06 08:21:29;;;;;;;3.53;2.70;;;19.90;99.90;;;;;;10424408;28;20033;-80
2022/08/06 08:26:29;;;;;;;1.23;1.13;;;19.70;99.90;;;;;;10425879;28;20057;-81
2022/08/06 08:31:30;;;;;;;2.33;0.80;;;19.50;99.90;;;;;;10441469;28;20024;-81
2022/08/06 08:36:31;;;;;;;1.10;1.00;;;19.30;99.90;;;;;;10424523;28;20235;-80
2022/08/06 08:41:39;;;;;;;0.75;0.65;;;19.20;99.90;;;;;;10421348;28;20033;-80
2022/08/06 08:46:43;;;;;;;1.27;0.85;;;19.00;99.90;;;;;;10418884;28;20034;-80
2022/08/06 08:51:45;;;;;;;1.90;0.70;;;18.90;99.90;;;;;;10421370;28;20032;-81
2022/08/06 08:56:46;;;;;;;0.77;0.70;;;18.60;99.90;;;;;;10422212;28;20040;-82
2022/08/06 09:01:47;;;;;;;1.23;1.05;;;18.20;99.90;;;;;;10422961;28;20036;-84
2022/08/06 09:06:48;;;;;;;1.98;1.48;;;18.00;99.90;;;;;;10434047;28;20421;-82
2022/08/06 09:11:48;;;;;;;1.75;1.35;;;18.00;99.90;;;;;;10425234;28;20061;-82
2022/08/06 09:16:49;;;;;;;2.05;1.75;;;18.00;99.90;;;;;;10426809;28;20040;-82
2022/08/06 09:21:50;;;;;;;3.03;2.00;;;17.80;99.90;;;;;;10429786;28;20045;-81
2022/08/06 09:27:11;;;;;;;3.17;2.13;;;17.80;99.90;;;;;;10416833;28;20375;-82
2022/08/06 09:32:12;;;;;;;3.20;2.90;;;17.70;99.90;;;;;;10426490;28;20428;-80
2022/08/06 09:37:13;;;;;;;3.95;2.72;;;17.70;99.90;;;;;;10429442;28;20041;-83
2022/08/06 09:42:13;;;;;;;5.38;3.40;;;17.60;99.90;;;;;;10420256;28;20037;-82
2022/08/06 09:47:20;;;;;;;3.67;2.92;;;17.60;99.90;;;;;;10427530;28;20449;-83
2022/08/06 09:52:20;;;;;;;5.13;4.03;;;17.60;99.90;;;;;;10428331;28;20025;-82
2022/08/06 09:57:26;;;;;;;5.68;3.53;;;17.50;99.90;;;;;;10416332;28;20045;-80
2022/08/06 10:02:33;;;;;;;5.43;3.65;;;17.50;99.90;;;;;;10416628;28;20037;-80
2022/08/06 10:07:33;;;;;;;5.45;3.60;;;17.60;99.90;;;;;;10417196;28;20085;-80
2022/08/06 10:12:34;;;;;;;5.05;3.30;;;17.60;99.90;;;;;;10420161;28;20032;-80
2022/08/06 10:17:35;;;;;;;5.25;4.00;;;17.60;99.90;;;;;;10436250;28;20037;-79
2022/08/06 10:22:48;;;;;;;3.92;2.88;;;17.60;99.90;;;;;;10417606;28;20040;-80
2022/08/06 10:27:53;;;;;;;4.55;3.40;;;17.40;99.90;;;;;;10432018;28;20057;-80
2022/08/06 10:33:02;;;;;;;3.38;3.05;;;17.30;99.90;;;;;;10431489;28;20431;-79
2022/08/06 10:38:04;;;;;;;3.97;3.28;;;17.30;99.90;;;;;;10416962;28;20034;-79
2022/08/06 10:43:07;;;;;;;6.38;3.83;;;17.20;99.90;;;;;;10424419;28;20132;-78
2022/08/06 10:48:08;;;;;;;4.30;3.38;;;17.10;99.90;;;;;;10430811;28;20043;-81
2022/08/06 10:53:10;;;;;;;7.55;4.47;;;17.10;99.90;;;;;;10423929;28;20025;-82
2022/08/06 10:58:11;;;;;;;4.75;3.83;;;17.10;99.90;;;;;;10432436;28;20397;-79
2022/08/06 11:03:44;;;;;;;4.63;3.47;;;17.10;99.90;;;;;;10426017;28;20053;-78
2022/08/06 11:08:57;;;;;;;6.38;3.50;;;17.20;99.90;;;;;;10404556;23;20065;-79
2022/08/06 11:14:11;;;;;;;8.05;4.30;;;17.10;99.90;;;;;;10365343;28;20097;-78
2022/08/06 11:19:13;;;;;;;6.40;4.45;;;16.70;99.90;;;;;;10357250;28;20030;-79
2022/08/06 11:24:15;;;;;;;6.78;4.60;;;16.60;99.90;;;;;;10361191;28;20059;-79
2022/08/06 11:29:15;;;;;;;8.27;4.53;;;16.50;99.90;;;;;;10366808;28;20375;-78
2022/08/06 11:34:18;;;;;;;6.72;4.75;;;16.40;99.90;;;;;;10365639;28;20034;-80
2022/08/06 11:39:20;;;;;;;9.10;6.25;;;16.30;99.90;;;;;;10357214;28;20028;-78
2022/08/06 11:44:26;;;;;;;7.53;4.93;;;16.30;99.90;;;;;;10363308;28;20046;-77
2022/08/06 11:49:41;;;;;;;8.82;5.25;;;16.30;99.90;;;;;;10356090;28;20560;-79
2022/08/06 11:54:44;;;;;;;9.00;5.88;;;16.30;99.90;;;;;;10360980;28;20033;-77
2022/08/06 11:59:57;;;;;;;8.82;6.15;;;16.40;99.90;;;;;;10361019;28;20113;-78
2022/08/06 12:04:58;;;;;;;14.15;7.50;;;16.50;99.90;;;;;;10354297;28;20397;-77
2022/08/06 12:10:08;;;;;;;9.52;6.32;;;16.60;99.90;;;;;;10364687;28;20054;-78
2022/08/06 12:15:12;;;;;;;11.85;7.35;;;16.60;99.90;;;;;;10359471;28;20025;-76
2022/08/06 12:20:13;;;;;;;12.95;8.82;;;16.60;99.90;;;;;;10363450;28;20574;-77
2022/08/06 12:25:14;;;;;;;13.60;7.80;;;16.70;99.90;;;;;;10363568;28;20053;-76
2022/08/06 12:30:15;;;;;;;10.27;7.47;;;16.70;99.90;;;;;;10362410;28;20085;-77
2022/08/06 12:35:16;;;;;;;10.75;8.23;;;16.80;99.90;;;;;;10360404;28;20018;-76
2022/08/06 12:40:26;;;;;;;14.80;9.23;;;16.80;99.90;;;;;;10363250;28;20101;-78
2022/08/06 12:45:31;;;;;;;12.45;8.48;;;16.90;99.90;;;;;;10359780;28;20033;-79
2022/08/06 12:50:34;;;;;;;13.33;8.83;;;16.90;99.90;;;;;;10364465;28;20060;-79
2022/08/06 12:55:51;;;;;;;14.25;8.88;;;16.90;99.90;;;;;;10362313;28;20067;-79
2022/08/06 13:00:57;;;;;;;15.65;8.85;;;16.90;99.90;;;;;;10356131;28;20030;-77
2022/08/06 13:05:59;;;;;;;;;;;17.00;99.90;;;;;;10362092;28;20034;-79
2022/08/06 13:10:59;;;;;;;8.95;7.57;;;17.30;99.90;;;;;;10359524;28;19929;-80
2022/08/06 13:16:05;;;;;;;13.02;6.95;;;17.40;99.90;;;;;;10354012;28;20033;-82
2022/08/06 13:21:20;;;;;;;11.10;7.80;;;17.40;99.90;;;;;;10362879;28;20036;-81
2022/08/06 13:26:26;;;;;;;9.52;7.45;;;17.40;99.90;;;;;;10360403;28;20153;-83
2022/08/06 13:31:27;;;;;;;11.32;7.78;;;17.40;99.90;;;;;;10360670;28;20026;-83
2022/08/06 13:36:29;;;;;;;10.05;6.82;;;17.50;99.90;;;;;;10356714;28;20057;-81
2022/08/06 13:41:33;;;;;;;9.63;6.90;;;17.50;99.90;;;;;;10361386;28;20040;-83
2022/08/06 13:46:43;;;;;;;9.30;7.05;;;17.50;99.90;;;;;;10355946;28;20382;-83
2022/08/06 13:51:44;;;;;;;10.85;6.75;;;17.60;99.90;;;;;;10359320;28;20597;-82
2022/08/06 13:56:46;;;;;;;7.63;5.40;;;17.70;99.90;;;;;;10361571;28;20065;-84
2022/08/06 14:01:48;;;;;;;6.80;4.90;;;17.80;99.90;;;;;;10354884;28;20030;-83
2022/08/06 14:06:56;;;;;;;6.75;5.30;;;17.90;99.90;;;;;;10356476;28;20050;-83
2022/08/06 14:12:02;;;;;;;6.93;5.13;;;18.10;99.90;;;;;;10343800;28;20117;-83
2022/08/06 14:17:03;;;;;;;7.28;4.38;;;18.40;99.90;;;;;;10355333;28;20117;-83
2022/08/06 14:22:10;;;;;;;8.23;4.93;;;18.40;99.90;;;;;;10353113;28;20038;-82
2022/08/06 14:27:16;;;;;;;7.03;4.75;;;18.50;99.90;;;;;;10337203;28;20030;-82
2022/08/06 14:32:17;;;;;;;5.05;4.40;;;18.80;99.90;;;;;;10338015;28;20683;-83
2022/08/06 14:37:18;;;;;;;7.28;4.20;;;18.90;99.90;;;;;;10343849;28;20033;-83
2022/08/06 14:47:37;;;;;;;5.32;3.92;;;19.40;99.90;;;;;;10353344;28;20061;-82
2022/08/06 14:52:40;;;;;;;6.07;4.35;;;19.40;99.90;;;;;;10360099;28;20112;-82
2022/08/06 14:57:41;;;;;;;5.78;4.05;;;19.40;99.90;;;;;;10360129;28;20466;-82
2022/08/06 15:02:41;;;;;;;6.10;4.00;;;19.40;99.90;;;;;;10364006;28;20038;-82
2022/08/06 15:07:42;;;;;;;5.60;4.32;;;19.40;99.90;;;;;;10364661;28;20753;-82
2022/08/06 15:12:43;;;;;;;4.43;4.03;;;19.40;99.90;;;;;;10366200;28;20014;-83
2022/08/06 15:17:43;;;;;;;4.55;3.90;;;19.40;99.90;;;;;;10369249;28;20029;-82
2022/08/06 15:22:44;;;;;;;4.47;3.58;;;19.30;99.90;;;;;;10368544;28;20030;-82
2022/08/06 15:27:45;;;;;;;11.65;4.05;;;19.40;99.90;;;;;;10367356;28;20038;-82
2022/08/06 15:32:47;;;;;;;6.53;4.47;;;19.30;99.90;;;;;;10368269;28;20018;-83
2022/08/06 15:37:48;;;;;;;5.20;3.90;;;19.30;99.90;;;;;;10367749;28;20116;-83
2022/08/06 15:42:49;;;;;;;7.53;3.50;;;19.40;99.90;;;;;;10349858;28;20085;-82
2022/08/06 15:47:49;;;;;;;6.78;3.60;;;19.60;99.90;;;;;;10364314;28;20179;-82
2022/08/06 15:52:50;;;;;;;5.97;3.67;;;19.70;99.90;;;;;;10367956;28;20030;-82
2022/08/06 15:57:51;;;;;;;5.10;3.05;;;19.60;99.90;;;;;;10363344;28;20080;-82
2022/08/06 16:02:51;;;;;;;3.67;3.05;;;19.50;99.90;;;;;;10360913;28;20100;-82
2022/08/06 16:07:52;;;;;;;4.82;3.97;;;19.40;99.90;;;;;;10365526;28;20060;-81
2022/08/06 16:12:53;;;;;;;6.32;3.80;;;19.40;99.90;;;;;;10359136;28;20033;-82
2022/08/06 16:17:53;;;;;;;4.35;3.20;;;19.40;99.90;;;;;;10358911;28;20030;-82
2022/08/06 16:22:54;;;;;;;5.30;3.33;;;19.40;99.90;;;;;;10365966;28;20223;-82
2022/08/06 16:27:54;;;;;;;4.55;3.78;;;19.30;99.90;;;;;;10362256;28;20052;-83
2022/08/06 16:32:55;;;;;;;3.53;3.10;;;19.20;99.90;;;;;;10366023;28;20018;-81
2022/08/06 16:37:56;;;;;;;5.00;3.63;;;19.10;99.90;;;;;;10359823;28;20026;-82
2022/08/06 16:42:57;;;;;;;4.47;2.70;;;19.10;99.90;;;;;;10347244;28;20054;-81
2022/08/06 16:47:57;;;;;;;4.50;3.97;;;19.00;99.90;;;;;;10365385;28;20026;-82
2022/08/06 16:52:58;;;;;;;4.63;4.07;;;18.90;99.90;;;;;;10360192;28;20028;-81
2022/08/06 16:57:59;;;;;;;5.50;3.33;;;18.90;99.90;;;;;;10346786;28;20057;-82
2022/08/06 17:03:00;;;;;;;5.07;3.78;;;18.80;99.90;;;;;;10358076;28;20505;-82
2022/08/06 17:08:01;;;;;;;4.93;3.83;;;18.80;99.90;;;;;;10357432;28;20108;-82
2022/08/06 17:13:02;;;;;;;4.88;4.00;;;18.70;99.90;;;;;;10359332;28;20106;-82
2022/08/06 17:18:03;;;;;;;5.40;3.90;;;18.70;99.90;;;;;;10361890;28;20041;-82
2022/08/06 17:23:04;;;;;;;4.55;4.15;;;18.60;99.90;;;;;;10340575;28;20069;-81
2022/08/06 17:28:05;;;;;;;7.63;4.75;;;18.50;99.90;;;;;;10358771;28;20140;-81
2022/08/06 17:33:05;;;;;;;5.18;3.83;;;18.50;99.90;;;;;;10357199;28;20029;-82
2022/08/06 17:38:06;;;;;;;4.60;4.18;;;18.40;99.90;;;;;;10357545;28;20102;-81
2022/08/06 17:43:09;;;;;;;5.63;4.40;;;18.40;99.90;;;;;;10360681;28;20030;-82
2022/08/06 17:48:10;;;;;;;5.93;4.47;;;18.40;99.90;;;;;;10338089;28;20033;-83
2022/08/06 17:53:14;;;;;;;7.10;4.40;;;18.40;99.90;;;;;;10361155;28;20026;-82
2022/08/06 17:58:16;;;;;;;5.82;4.20;;;18.40;99.90;;;;;;10359403;28;20037;-81
2022/08/06 18:03:17;;;;;;;6.50;4.50;;;18.30;99.90;;;;;;10360799;28;20624;-82
2022/08/06 18:08:18;;;;;;;7.50;5.00;;;18.30;99.90;;;;;;10360129;28;20058;-83
2022/08/06 18:13:19;;;;;;;6.82;5.22;;;18.20;99.90;;;;;;10361701;28;20112;-81
2022/08/06 18:18:20;;;;;;;7.72;5.47;;;18.20;99.90;;;;;;10355150;28;20058;-81
2022/08/06 18:23:21;;;;;;;5.80;4.97;;;18.10;99.90;;;;;;10363115;28;20549;-80
2022/08/06 18:28:21;;;;;;;6.65;5.80;;;18.10;99.90;;;;;;10362116;28;20037;-82
2022/08/06 18:33:22;;;;;;;7.45;5.75;;;18.00;99.90;;;;;;10362198;28;20038;-83
2022/08/06 18:38:24;;;;;;;8.73;5.20;;;18.00;99.90;;;;;;10363751;28;20034;-80
2022/08/06 18:43:25;;;;;;;7.38;5.47;;;17.80;99.90;;;;;;10328111;28;20653;-80
2022/08/06 18:48:26;;;;;;;8.55;5.70;;;17.80;99.90;;;;;;10367500;28;20053;-84
2022/08/06 18:53:27;;;;;;;9.07;6.28;;;17.70;99.90;;;;;;10350119;28;20473;-82
2022/08/06 18:58:29;;;;;;;9.63;5.88;;;17.50;99.90;;;;;;10348697;28;20026;-83
2022/08/06 19:03:30;;;;;;;11.40;7.30;;;17.50;99.90;;;;;;10343646;28;20038;-82
2022/08/06 19:08:30;;;;;;;10.55;6.93;;;17.40;99.90;;;;;;10351410;28;20482;-82
2022/08/06 19:13:31;;;;;;;7.68;6.72;;;17.40;99.90;;;;;;10369524;28;20018;-82
2022/08/06 19:18:32;;;;;;;7.15;6.45;;;17.40;99.90;;;;;;10343184;28;20026;-84
2022/08/06 19:23:33;;;;;;;8.80;7.00;;;17.40;99.90;;;;;;10368837;28;20028;-83
2022/08/06 19:28:33;;;;;;;9.30;6.63;;;17.30;99.90;;;;;;10350515;28;20022;-82
2022/08/06 19:33:34;;;;;;;10.82;6.80;;;17.20;99.90;;;;;;10369163;28;20026;-83
2022/08/06 19:38:35;;;;;;;10.40;8.20;;;17.20;99.90;;;;;;10368941;28;20033;-82
2022/08/06 19:43:36;;;;;;;7.88;7.07;;;17.20;99.90;;;;;;10350003;28;20037;-82
2022/08/06 19:48:37;;;;;;;9.85;7.78;;;17.20;99.90;;;;;;10368033;28;20416;-83
2022/08/06 19:53:37;;;;;;;8.60;7.63;;;17.20;99.90;;;;;;10367248;28;20038;-84
2022/08/06 19:58:38;;;;;;;8.32;7.18;;;17.10;99.90;;;;;;10350460;28;20374;-82
2022/08/06 20:03:43;;;;;;;8.45;6.90;;;17.10;99.90;;;;;;10352485;28;20038;-82
2022/08/06 20:08:44;;;;;;;8.05;7.25;;;16.90;99.90;;;;;;10344981;28;20046;-82
2022/08/06 20:13:45;;;;;;;10.63;8.48;;;16.80;99.90;;;;;;10364908;28;20026;-82
2022/08/06 20:18:45;;;;;;;9.23;8.30;;;16.70;99.90;;;;;;10357889;28;20034;-81
2022/08/06 20:23:46;;;;;;;10.25;7.65;;;16.50;99.90;;;;;;10363444;28;20042;-82
2022/08/06 20:28:48;;;;;;;10.52;8.63;;;16.40;99.90;;;;;;10342490;28;20088;-81
2022/08/06 20:33:49;;;;;;;10.30;9.15;;;16.30;99.90;;;;;;10347228;28;20033;-81
2022/08/06 20:38:50;;;;;;;13.05;9.02;;;16.30;99.90;;;;;;10361816;28;20029;-81
2022/08/06 20:43:54;;;;;;;16.20;9.82;;;16.20;99.90;;;;;;10364422;28;20041;-82
2022/08/06 20:48:54;;;;;;;10.52;9.35;;;16.10;99.90;;;;;;10359003;28;20034;-81
2022/08/06 20:53:56;;;;;;;10.82;9.50;;;16.10;99.90;;;;;;10362907;28;20029;-82
2022/08/06 20:58:57;;;;;;;10.70;9.40;;;16.00;99.90;;;;;;10360189;28;20030;-78
2022/08/06 21:03:57;;;;;;;12.05;10.60;;;15.90;99.90;;;;;;10340952;28;20045;-78
2022/08/06 21:08:58;;;;;;;15.75;9.40;;;15.90;99.90;;;;;;10357487;28;20061;-78
2022/08/06 21:13:59;;;;;;;12.98;10.00;;;15.80;99.90;;;;;;10356946;28;20049;-79
2022/08/06 21:18:59;;;;;;;13.43;9.98;;;15.70;99.90;;;;;;10355607;28;20128;-79
2022/08/06 21:24:00;;;;;;;13.93;10.60;;;15.50;99.90;;;;;;10356707;28;20037;-78
2022/08/06 21:29:02;;;;;;;15.07;11.00;;;15.40;99.90;;;;;;10361346;28;20084;-78
2022/08/06 21:34:03;;;;;;;15.63;12.18;;;15.40;99.90;;;;;;10354358;28;20038;-78
2022/08/06 21:39:04;;;;;;;12.05;10.05;;;15.30;99.90;;;;;;10361136;28;20033;-79
2022/08/06 21:44:04;;;;;;;12.27;10.35;;;15.30;99.90;;;;;;10355703;28;20188;-79
2022/08/06 21:49:05;;;;;;;12.63;10.52;;;15.20;99.90;;;;;;10356591;28;20025;-78
2022/08/06 21:54:06;;;;;;;16.60;11.85;;;15.10;99.90;;;;;;10362448;28;20030;-78
2022/08/06 21:59:07;;;;;;;17.63;11.13;;;15.00;99.90;;;;;;10361777;28;20030;-77
2022/08/06 22:04:08;;;;;;;16.35;12.13;;;15.00;99.90;;;;;;10360652;28;20049;-79
2022/08/06 22:09:08;;;;;;;21.98;13.88;;;15.00;99.90;;;;;;10358049;28;20468;-78
2022/08/06 22:14:10;;;;;;;17.15;13.93;;;15.00;99.90;;;;;;10368745;28;20485;-78
2022/08/06 22:19:11;;;;;;;15.88;12.65;;;15.10;99.90;;;;;;10369023;28;20045;-78
2022/08/06 22:24:11;;;;;;;20.83;15.32;;;15.10;99.90;;;;;;10362049;28;20042;-78
2022/08/06 22:29:12;;;;;;;20.00;14.52;;;15.10;99.90;;;;;;10366922;28;20045;-78
2022/08/06 22:34:12;;;;;;;24.10;15.63;;;15.10;99.90;;;;;;10367369;28;20031;-78
2022/08/06 22:39:13;;;;;;;21.23;16.00;;;15.10;99.90;;;;;;10368056;28;20121;-78
2022/08/06 22:44:14;;;;;;;18.30;15.10;;;15.20;99.90;;;;;;10367009;28;20038;-79
2022/08/06 22:49:14;;;;;;;18.83;14.55;;;15.20;99.90;;;;;;10365427;28;20037;-78
2022/08/06 22:54:15;;;;;;;16.23;13.40;;;15.10;99.90;;;;;;10363539;28;20038;-78
2022/08/06 22:59:15;;;;;;;15.85;12.85;;;15.10;99.90;;;;;;10363270;28;20550;-79
2022/08/06 23:04:16;;;;;;;17.98;14.10;;;15.10;99.90;;;;;;10359963;28;20041;-79
2022/08/06 23:09:16;;;;;;;18.23;14.50;;;15.10;99.90;;;;;;10365718;28;20080;-79
2022/08/06 23:14:17;;;;;;;20.75;15.15;;;15.10;99.90;;;;;;10368410;28;20076;-78
2022/08/06 23:19:18;;;;;;;22.13;15.95;;;15.00;99.90;;;;;;10360673;28;20478;-78
2022/08/06 23:24:19;;;;;;;21.10;16.67;;;15.00;99.90;;;;;;10360776;28;20709;-79
2022/08/06 23:29:20;;;;;;;22.83;16.52;;;14.90;99.90;;;;;;10359190;28;20038;-78
2022/08/06 23:34:20;;;;;;;22.35;15.07;;;14.90;99.90;;;;;;10362529;28;20033;-78
2022/08/06 23:39:22;;;;;;;19.65;14.77;;;14.80;99.90;;;;;;10362659;28;20033;-78
2022/08/06 23:44:23;;;;;;;20.58;14.20;;;14.80;99.90;;;;;;10360606;28;20088;-78
2022/08/06 23:49:24;;;;;;;20.35;14.95;;;14.70;99.90;;;;;;10359161;28;20044;-78
2022/08/06 23:54:27;;;;;;;23.10;16.33;;;14.70;99.90;;;;;;10366304;28;20389;-79
2022/08/06 23:59:27;;;;;;;27.20;17.83;;;14.70;99.90;;;;;;10362208;28;20057;-79
